Time;durP1;ratioP1;P1;durP2;ratioP2;P2;SDS_P1;SDS_P2;PMS_P1;PMS_P2;Temp;Humidity;BMP_temperature;BMP_pressure;BME280_temperature;BME280_humidity;BME280_pressure;Samples;Min_cycle;Max_cycle;Signal;HPM_P1;HPM_P2
2022/11/28 00:01:25;;;;;;;0.50;0.10;;;6.90;1.00;;;;;;6126122;23;20437;-75
2022/11/28 00:03:53;;;;;;;0.50;0.17;;;6.90;1.00;;;;;;6125550;23;20433;-75
2022/11/28 00:06:21;;;;;;;0.50;0.10;;;6.90;1.00;;;;;;6125662;23;20493;-75
2022/11/28 00:08:49;;;;;;;0.50;0.10;;;6.80;1.00;;;;;;6126565;23;20929;-75
2022/11/28 00:11:17;;;;;;;0.70;0.70;;;6.70;1.00;;;;;;6125891;23;20925;-74
2022/11/28 00:13:46;;;;;;;0.60;0.43;;;6.70;1.00;;;;;;6125809;23;20500;-74
2022/11/28 00:16:20;;;;;;;0.50;0.10;;;6.80;1.00;;;;;;6126270;23;20777;-75
2022/11/28 00:18:48;;;;;;;4.40;4.03;;;6.70;1.00;;;;;;6126550;23;20437;-75
2022/11/28 00:21:16;;;;;;;0.50;0.20;;;6.70;1.00;;;;;;6127021;23;20441;-77
2022/11/28 00:23:45;;;;;;;0.50;0.10;;;6.70;1.00;;;;;;6125587;23;20406;-77
2022/11/28 00:26:18;;;;;;;0.50;0.10;;;6.60;1.00;;;;;;6125619;23;20413;-75
2022/11/28 00:28:45;;;;;;;0.70;0.47;;;6.60;1.00;;;;;;6125498;23;20386;-74
2022/11/28 00:31:17;;;;;;;0.50;0.10;;;6.60;1.00;;;;;;6125952;23;20434;-76
2022/11/28 00:33:45;;;;;;;0.87;0.47;;;6.60;1.00;;;;;;6125550;23;20461;-75
2022/11/28 00:36:13;;;;;;;0.70;0.20;;;6.40;1.00;;;;;;6126208;23;20402;-74
2022/11/28 00:38:41;;;;;;;0.50;0.10;;;6.40;1.00;;;;;;6125148;23;21195;-75
2022/11/28 00:41:12;;;;;;;0.50;0.10;;;6.40;1.00;;;;;;6125113;23;20489;-76
2022/11/28 00:43:41;;;;;;;0.50;0.20;;;6.40;1.00;;;;;;6125135;23;20485;-75
2022/11/28 00:46:09;;;;;;;0.50;0.10;;;6.50;1.00;;;;;;6124823;23;20792;-75
2022/11/28 00:48:39;;;;;;;0.50;0.30;;;6.50;1.00;;;;;;6125061;23;20406;-76
2022/11/28 00:51:08;;;;;;;0.50;0.10;;;6.60;1.00;;;;;;6126044;23;20426;-74
2022/11/28 00:53:39;;;;;;;0.50;0.10;;;6.60;1.00;;;;;;6129146;23;20465;-74
2022/11/28 00:56:08;;;;;;;0.50;0.10;;;6.60;1.00;;;;;;6126081;23;20386;-75
2022/11/28 00:58:37;;;;;;;0.50;0.10;;;6.70;1.00;;;;;;6125363;23;20786;-74
2022/11/28 05:02:21;;;;;;;52.83;12.10;;;6.50;1.00;;;;;;6112744;23;20516;-77
2022/11/28 05:04:51;;;;;;;1.53;1.43;;;;;;;;;;6129111;23;20467;-77
2022/11/28 05:07:22;;;;;;;0.50;0.20;;;6.50;1.00;;;;;;6125175;23;20481;-76
2022/11/28 05:09:51;;;;;;;0.50;0.20;;;6.40;1.00;;;;;;6125346;23;20410;-78
2022/11/28 05:12:19;;;;;;;0.50;0.10;;;6.40;1.00;;;;;;6125368;23;20481;-76
2022/11/28 05:14:47;;;;;;;0.50;0.17;;;;;;;;;;6128171;23;20546;-74
2022/11/28 05:17:15;;;;;;;1.37;0.70;;;6.50;1.00;;;;;;6154472;23;20432;-73
2022/11/28 05:19:44;;;;;;;0.50;0.10;;;6.50;1.00;;;;;;6154507;23;20407;-73
2022/11/28 05:22:11;;;;;;;0.70;0.70;;;6.50;1.00;;;;;;6154142;23;20410;-74
2022/11/28 05:24:39;;;;;;;0.50;0.10;;;6.50;1.00;;;;;;6154504;23;20467;-73
2022/11/28 05:27:07;;;;;;;4.53;2.77;;;6.50;1.00;;;;;;6155662;23;20559;-74
2022/11/28 05:29:35;;;;;;;0.50;0.10;;;;;;;;;;6154910;23;20405;-73
2022/11/28 05:32:04;;;;;;;4.13;3.90;;;6.40;1.00;;;;;;6153550;23;20397;-73
2022/11/28 05:34:32;;;;;;;0.50;0.30;;;6.50;1.00;;;;;;6154145;23;20453;-73
2022/11/28 05:37:01;;;;;;;0.50;0.10;;;6.50;1.00;;;;;;6154963;23;20409;-73
2022/11/28 05:39:28;;;;;;;1.57;1.47;;;6.50;1.00;;;;;;6154121;23;20459;-73
2022/11/28 05:41:57;;;;;;;0.50;0.10;;;6.50;1.00;;;;;;6154119;23;20459;-73
2022/11/28 05:44:25;;;;;;;0.50;0.10;;;6.50;1.00;;;;;;6154528;23;20397;-73
2022/11/28 05:46:54;;;;;;;0.50;0.10;;;6.40;1.00;;;;;;6153839;23;20513;-74
2022/11/28 05:49:22;;;;;;;0.50;0.10;;;6.50;1.00;;;;;;6154192;23;20711;-73
2022/11/28 05:51:50;;;;;;;0.50;0.10;;;;;;;;;;6154421;23;20471;-73
2022/11/28 05:54:20;;;;;;;2.30;2.10;;;;;;;;;;6153711;23;20496;-74
2022/11/28 05:56:48;;;;;;;0.50;0.10;;;6.50;1.00;;;;;;6153914;23;20405;-73
2022/11/28 05:59:15;;;;;;;0.50;0.10;;;6.50;1.00;;;;;;6154292;23;20412;-73
2022/11/28 06:01:43;;;;;;;0.50;0.10;;;6.50;1.00;;;;;;6154452;23;20409;-73
2022/11/28 06:04:11;;;;;;;4.83;4.53;;;6.50;1.00;;;;;;6154081;23;20843;-73
2022/11/28 06:06:39;;;;;;;0.50;0.10;;;6.50;1.00;;;;;;6154116;23;20429;-73
2022/11/28 06:09:07;;;;;;;0.50;0.13;;;6.50;1.00;;;;;;6154209;23;20405;-73
2022/11/28 06:11:36;;;;;;;0.50;0.10;;;6.50;1.00;;;;;;6154353;23;20901;-74
2022/11/28 06:14:04;;;;;;;0.60;0.50;;;6.60;1.00;;;;;;6153971;23;20524;-73
2022/11/28 06:16:32;;;;;;;0.50;0.10;;;6.60;1.00;;;;;;6154174;23;20499;-74
2022/11/28 06:19:02;;;;;;;0.50;0.10;;;6.50;1.00;;;;;;6155465;23;20409;-74
2022/11/28 06:21:30;;;;;;;0.50;0.10;;;6.50;1.00;;;;;;6156879;23;20469;-74
2022/11/28 06:23:59;;;;;;;0.50;0.10;;;6.50;1.00;;;;;;6155478;23;20412;-75
2022/11/28 06:26:28;;;;;;;0.50;0.10;;;6.60;1.00;;;;;;6156147;23;20436;-74
2022/11/28 06:28:57;;;;;;;0.60;0.30;;;6.60;1.00;;;;;;6156040;23;20482;-74
2022/11/28 06:31:27;;;;;;;0.50;0.20;;;6.50;1.00;;;;;;6156341;23;20408;-74
2022/11/28 06:33:55;;;;;;;0.50;0.10;;;6.60;1.00;;;;;;6155670;23;20405;-74
2022/11/28 06:36:25;;;;;;;0.50;0.10;;;6.60;1.00;;;;;;6156641;23;20425;-73
2022/11/28 06:38:53;;;;;;;0.50;0.10;;;6.60;1.00;;;;;;6156883;23;20423;-74
2022/11/28 06:41:21;;;;;;;0.50;0.10;;;6.60;1.00;;;;;;6156867;23;20413;-74
2022/11/28 06:43:49;;;;;;;0.87;0.87;;;6.60;1.00;;;;;;6155345;23;20929;-75
2022/11/28 06:46:20;;;;;;;0.73;0.73;;;6.60;1.00;;;;;;6155781;23;20421;-74
2022/11/28 06:48:50;;;;;;;2.00;1.80;;;6.60;1.00;;;;;;6155618;23;20404;-76
2022/11/28 06:51:18;;;;;;;0.50;0.10;;;6.60;1.00;;;;;;6155984;23;20415;-74
2022/11/28 06:53:46;;;;;;;0.50;0.20;;;6.60;1.00;;;;;;6155240;23;20455;-72
2022/11/28 06:56:16;;;;;;;0.50;0.20;;;6.70;1.00;;;;;;6156910;23;20499;-73
2022/11/28 06:58:45;;;;;;;0.50;0.10;;;6.70;1.00;;;;;;6153885;23;20781;-74
2022/11/28 07:01:15;;;;;;;0.50;0.10;;;6.70;1.00;;;;;;6155700;23;20400;-76
2022/11/28 07:03:45;;;;;;;0.50;0.10;;;6.70;1.00;;;;;;6155226;23;20814;-74
2022/11/28 07:06:15;;;;;;;0.50;0.10;;;6.70;1.00;;;;;;6155539;23;20483;-74
2022/11/28 07:08:43;;;;;;;0.50;0.10;;;6.60;1.00;;;;;;6154657;23;20409;-75
2022/11/28 07:11:13;;;;;;;0.50;0.10;;;6.50;1.00;;;;;;6154243;23;20785;-74
2022/11/28 07:13:41;;;;;;;0.50;0.10;;;6.50;1.00;;;;;;6153728;23;20400;-75
2022/11/28 07:16:15;;;;;;;1.60;1.03;;;6.50;1.00;;;;;;6153504;23;20977;-75
2022/11/28 07:18:45;;;;;;;1.53;1.40;;;6.60;1.00;;;;;;6154384;23;20392;-74
2022/11/28 07:21:13;;;;;;;0.50;0.10;;;6.50;1.00;;;;;;6154721;23;20405;-74
2022/11/28 07:23:42;;;;;;;0.50;0.10;;;6.50;1.00;;;;;;6154380;23;20456;-74
2022/11/28 07:26:11;;;;;;;0.50;0.10;;;6.50;1.00;;;;;;6155036;23;20476;-74
2022/11/28 07:28:40;;;;;;;0.50;0.13;;;6.50;1.00;;;;;;6153864;23;20463;-74
2022/11/28 07:31:10;;;;;;;0.50;0.10;;;6.50;1.00;;;;;;6154202;23;20409;-74
2022/11/28 07:33:40;;;;;;;0.50;0.10;;;6.60;1.00;;;;;;6153881;23;20396;-75
2022/11/28 07:36:12;;;;;;;0.50;0.10;;;6.60;1.00;;;;;;6154302;23;20445;-74
2022/11/28 07:38:40;;;;;;;1.17;1.07;;;;;;;;;;6154072;23;20964;-74
2022/11/28 07:41:10;;;;;;;0.50;0.10;;;6.60;1.00;;;;;;6153880;23;20413;-74
2022/11/28 07:43:39;;;;;;;0.50;0.10;;;6.60;1.00;;;;;;6153238;23;20464;-74
2022/11/28 07:46:08;;;;;;;0.50;0.20;;;6.60;1.00;;;;;;6154084;23;20421;-74
2022/11/28 07:48:36;;;;;;;0.50;0.10;;;6.60;1.00;;;;;;6153539;23;20455;-74
2022/11/28 07:51:06;;;;;;;0.50;0.10;;;6.60;1.00;;;;;;6153557;23;20885;-74
2022/11/28 07:53:35;;;;;;;0.50;0.10;;;6.70;1.00;;;;;;6153160;23;20790;-74
2022/11/28 07:56:04;;;;;;;0.50;0.10;;;6.70;1.00;;;;;;6153936;23;20492;-74
2022/11/28 07:58:32;;;;;;;0.50;0.10;;;6.70;1.00;;;;;;6153897;23;20875;-75
2022/11/28 08:00:59;;;;;;;0.50;0.10;;;6.70;1.00;;;;;;6153774;23;20411;-75
2022/11/28 08:03:27;;;;;;;0.50;0.10;;;6.70;1.00;;;;;;6153616;23;20409;-75
2022/11/28 08:06:00;;;;;;;0.50;0.10;;;6.80;1.00;;;;;;6155000;23;20428;-74
2022/11/28 08:08:30;;;;;;;0.50;0.10;;;6.80;1.00;;;;;;6156512;23;20405;-74
2022/11/28 08:11:00;;;;;;;0.50;0.10;;;6.80;1.00;;;;;;6157306;23;20435;-74
2022/11/28 08:13:29;;;;;;;0.50;0.10;;;6.80;1.00;;;;;;6157485;23;21094;-76
2022/11/28 08:15:57;;;;;;;0.50;0.30;;;6.90;1.00;;;;;;6163004;23;20456;-73
2022/11/28 08:18:25;;;;;;;0.50;0.10;;;6.90;1.00;;;;;;6155286;23;20409;-73
2022/11/28 08:20:53;;;;;;;0.50;0.10;;;6.90;1.00;;;;;;6157874;23;20428;-74
2022/11/28 08:23:30;;;;;;;0.50;0.10;;;6.90;1.00;;;;;;6157195;23;20411;-74
2022/11/28 08:26:00;;;;;;;0.50;0.10;;;7.00;1.00;;;;;;6154451;23;20448;-74
2022/11/28 08:28:28;;;;;;;0.50;0.10;;;7.00;1.00;;;;;;6154134;23;20401;-74
2022/11/28 08:30:56;;;;;;;1.10;0.63;;;7.00;1.00;;;;;;6154244;23;20495;-74
2022/11/28 08:33:24;;;;;;;6.97;6.63;;;7.70;1.00;;;;;;6153544;23;20444;-74
2022/11/28 08:35:52;;;;;;;0.50;0.10;;;7.10;1.00;;;;;;6153140;23;20444;-74
2022/11/28 08:38:20;;;;;;;0.50;0.10;;;7.10;1.00;;;;;;6153639;23;20444;-74
2022/11/28 08:40:47;;;;;;;0.50;0.20;;;7.10;1.00;;;;;;6153412;23;20405;-73
2022/11/28 08:43:16;;;;;;;0.50;0.10;;;7.10;1.00;;;;;;6153108;23;20401;-74
2022/11/28 08:45:45;;;;;;;0.60;0.40;;;7.10;1.00;;;;;;6153087;23;20429;-74
2022/11/28 08:48:13;;;;;;;0.50;0.10;;;7.10;1.00;;;;;;6153185;23;20405;-73
2022/11/28 08:50:46;;;;;;;0.50;0.10;;;7.10;1.00;;;;;;6154525;23;20459;-74
2022/11/28 08:53:15;;;;;;;0.50;0.10;;;7.10;1.00;;;;;;6153885;23;20459;-73
2022/11/28 08:55:45;;;;;;;0.50;0.10;;;7.00;1.00;;;;;;6152629;23;20499;-73
2022/11/28 08:58:14;;;;;;;0.50;0.10;;;7.00;1.00;;;;;;6159231;23;20464;-74
2022/11/28 09:00:43;;;;;;;0.50;0.10;;;7.00;1.00;;;;;;6154621;23;20469;-74
2022/11/28 09:03:14;;;;;;;0.50;0.10;;;7.10;1.00;;;;;;6153550;23;20722;-75
2022/11/28 09:05:44;;;;;;;0.50;0.10;;;7.10;1.00;;;;;;6153225;23;20433;-73
2022/11/28 09:08:12;;;;;;;0.50;0.10;;;7.20;1.00;;;;;;6153328;23;20406;-72
2022/11/28 09:10:40;;;;;;;0.50;0.10;;;7.20;1.00;;;;;;6153467;23;20464;-74
2022/11/28 09:13:09;;;;;;;0.50;0.10;;;7.20;1.00;;;;;;6151937;23;20437;-74
2022/11/28 09:15:39;;;;;;;0.50;0.10;;;7.30;1.00;;;;;;6154634;23;20533;-73
2022/11/28 09:18:09;;;;;;;0.50;0.10;;;7.30;1.00;;;;;;6154778;23;20460;-74
2022/11/28 09:20:36;;;;;;;0.50;0.10;;;7.30;1.00;;;;;;6155056;23;20405;-75
2022/11/28 09:23:04;;;;;;;0.50;0.10;;;7.30;1.00;;;;;;6154765;23;20778;-75
2022/11/28 09:25:34;;;;;;;0.50;0.10;;;7.30;1.00;;;;;;6155566;23;20428;-77
2022/11/28 09:28:02;;;;;;;0.50;0.10;;;7.30;1.00;;;;;;6156359;23;20389;-76
2022/11/28 09:30:30;;;;;;;0.50;0.10;;;7.30;1.00;;;;;;6155807;23;20405;-76
2022/11/28 09:32:59;;;;;;;0.50;0.10;;;7.40;1.00;;;;;;6155541;23;20405;-74
2022/11/28 09:35:29;;;;;;;0.70;0.50;;;7.40;1.00;;;;;;6155227;23;20432;-75
2022/11/28 09:37:57;;;;;;;0.50;0.10;;;7.40;1.00;;;;;;6155998;23;20432;-77
2022/11/28 09:40:31;;;;;;;0.50;0.10;;;7.50;1.00;;;;;;6156320;23;20409;-76
2022/11/28 09:43:02;;;;;;;0.50;0.10;;;7.50;1.00;;;;;;6156815;23;21025;-76
2022/11/28 09:45:32;;;;;;;0.50;0.10;;;7.50;1.00;;;;;;6158465;23;20424;-76
2022/11/28 09:48:06;;;;;;;2.13;0.67;;;7.50;1.00;;;;;;6158086;23;20405;-76
2022/11/28 09:50:39;;;;;;;0.50;0.10;;;7.50;1.00;;;;;;6155272;23;20459;-75
2022/11/28 09:53:17;;;;;;;4.73;4.53;;;7.50;1.00;;;;;;6154278;23;20404;-75
2022/11/28 09:55:49;;;;;;;0.50;0.10;;;7.60;1.00;;;;;;6154203;23;20417;-74
2022/11/28 09:58:24;;;;;;;0.50;0.10;;;7.60;1.00;;;;;;6155508;23;20412;-75
2022/11/28 10:01:00;;;;;;;0.50;0.10;;;7.60;1.00;;;;;;6158713;23;20385;-74
2022/11/28 10:03:39;;;;;;;0.50;0.10;;;7.70;1.00;;;;;;6155620;23;20405;-74
2022/11/28 10:06:17;;;;;;;0.50;0.10;;;7.70;1.00;;;;;;6154289;23;20490;-76
2022/11/28 10:09:02;;;;;;;0.50;0.10;;;7.70;1.00;;;;;;6154549;23;20508;-75
2022/11/28 10:11:40;;;;;;;0.50;0.10;;;9.90;1.00;;;;;;6154650;23;20389;-76
2022/11/28 10:14:30;;;;;;;0.70;0.67;;;7.70;1.00;;;;;;6153906;23;20435;-76
2022/11/28 10:17:04;;;;;;;0.50;0.10;;;7.70;1.00;;;;;;6154774;23;20445;-75
2022/11/28 10:19:36;;;;;;;0.50;0.10;;;7.80;1.00;;;;;;6153250;23;20408;-77
2022/11/28 10:22:34;;;;;;;0.50;0.10;;;7.80;1.00;;;;;;6155477;23;20466;-76
2022/11/28 10:25:10;;;;;;;0.50;0.10;;;7.90;1.00;;;;;;6156463;23;20442;-75
2022/11/28 10:27:41;;;;;;;0.50;0.10;;;7.90;1.00;;;;;;6157681;23;20396;-77
2022/11/28 10:30:20;;;;;;;0.50;0.20;;;7.90;1.00;;;;;;6156171;23;20417;-74
2022/11/28 10:32:55;;;;;;;0.50;0.20;;;7.90;1.00;;;;;;6155025;23;20381;-74
2022/11/28 10:35:30;;;;;;;0.50;0.10;;;7.90;1.00;;;;;;6158112;23;20429;-76
2022/11/28 10:37:59;;;;;;;0.50;0.20;;;7.90;1.00;;;;;;6152469;23;20432;-76
2022/11/28 10:40:36;;;;;;;0.50;0.10;;;8.00;1.00;;;;;;6155864;23;20436;-76
2022/11/28 10:43:12;;;;;;;0.70;0.47;;;8.10;1.00;;;;;;6154518;23;20393;-77
2022/11/28 10:45:51;;;;;;;0.50;0.10;;;8.10;1.00;;;;;;6155508;23;20432;-75
2022/11/28 10:48:30;;;;;;;0.50;0.10;;;8.10;1.00;;;;;;6154941;23;20389;-75
2022/11/28 10:51:23;;;;;;;64.13;32.27;;;8.10;1.00;;;;;;6156102;23;20389;-76
2022/11/28 10:54:02;;;;;;;0.50;0.10;;;8.10;1.00;;;;;;6152956;23;20409;-75
2022/11/28 10:56:37;;;;;;;0.50;0.10;;;8.20;1.00;;;;;;6153647;23;20440;-76
2022/11/28 10:59:11;;;;;;;0.50;0.10;;;8.20;1.00;;;;;;6154600;23;20730;-76
2022/11/28 11:01:41;;;;;;;0.50;0.20;;;8.20;1.00;;;;;;6154327;23;20409;-73
2022/11/28 11:04:19;;;;;;;0.50;0.10;;;8.30;1.00;;;;;;6155242;23;20513;-76
2022/11/28 11:07:01;;;;;;;0.50;0.10;;;8.30;1.00;;;;;;6156743;23;20405;-75
2022/11/28 11:09:39;;;;;;;0.50;0.10;;;8.30;1.00;;;;;;6156755;23;20385;-75
2022/11/28 11:12:19;;;;;;;0.50;0.10;;;8.40;1.00;;;;;;6156700;23;20405;-78
2022/11/28 11:14:47;;;;;;;0.50;0.10;;;;;;;;;;6156187;23;20944;-76
2022/11/28 11:17:26;;;;;;;0.50;0.10;;;8.50;1.00;;;;;;6158200;23;20491;-76
2022/11/28 11:20:02;;;;;;;15.30;14.37;;;8.50;1.00;;;;;;6156902;23;20414;-76
2022/11/28 11:22:31;;;;;;;0.50;0.10;;;8.60;1.00;;;;;;6154652;23;20468;-76
2022/11/28 11:25:13;;;;;;;0.50;0.20;;;8.70;1.00;;;;;;6155285;23;20487;-76
2022/11/28 11:30:53;;;;;;;0.50;0.10;;;;;;;;;;6134207;23;20419;-82
2022/11/28 11:33:23;;;;;;;0.50;0.10;;;8.70;1.00;;;;;;6168010;23;20419;-83
2022/11/28 11:35:51;;;;;;;0.50;0.10;;;8.70;1.00;;;;;;6169625;23;20413;-82
2022/11/28 11:38:43;;;;;;;0.50;0.10;;;8.80;1.00;;;;;;6149098;23;20694;-80
2022/11/28 11:41:29;;;;;;;0.50;0.10;;;8.80;1.00;;;;;;6144823;23;20508;-84
2022/11/28 11:44:15;;;;;;;0.50;0.10;;;8.80;1.00;;;;;;6147954;23;20417;-83
2022/11/28 11:46:54;;;;;;;0.50;0.10;;;;;;;;;;6144064;23;20486;-83
2022/11/28 11:49:29;;;;;;;0.50;0.10;;;8.90;1.00;;;;;;6173031;23;20447;-83
2022/11/28 11:51:58;;;;;;;0.50;0.10;;;;;;;;;;6172452;23;20417;-82
2022/11/28 11:54:26;;;;;;;0.50;0.10;;;;;;;;;;6174229;23;20457;-82
2022/11/28 11:56:58;;;;;;;0.50;0.10;;;8.90;1.00;;;;;;6175423;23;20436;-82
2022/11/28 11:59:50;;;;;;;0.50;0.10;;;9.00;1.00;;;;;;6174390;23;20401;-82
2022/11/28 12:02:24;;;;;;;0.50;0.10;;;9.00;1.00;;;;;;6174265;23;20397;-83
2022/11/28 12:05:01;;;;;;;0.50;0.10;;;9.00;1.00;;;;;;6173728;23;20479;-82
2022/11/28 12:07:36;;;;;;;0.70;0.70;;;9.00;1.00;;;;;;6174354;23;20436;-83
2022/11/28 12:10:06;;;;;;;1.43;1.33;;;9.00;1.00;;;;;;6170028;23;20404;-83
2022/11/28 12:12:37;;;;;;;0.50;0.10;;;9.00;1.00;;;;;;6167357;23;20912;-81
2022/11/28 12:15:15;;;;;;;0.50;0.10;;;9.00;1.00;;;;;;6168609;23;20575;-81
2022/11/28 12:17:55;;;;;;;0.50;0.20;;;9.00;1.00;;;;;;6173594;23;20468;-83
2022/11/28 12:20:40;;;;;;;0.50;0.10;;;9.00;1.00;;;;;;6181822;23;20429;-86
2022/11/28 12:23:22;;;;;;;0.50;0.10;;;9.00;1.00;;;;;;6182074;23;20401;-84
2022/11/28 12:25:54;;;;;;;0.63;0.30;;;9.00;1.00;;;;;;6172533;23;20746;-81
2022/11/28 12:28:38;;;;;;;0.50;0.20;;;9.10;1.00;;;;;;6177973;23;20412;-83
2022/11/28 12:31:15;;;;;;;0.50;0.10;;;9.10;1.00;;;;;;6170763;23;20444;-82
2022/11/28 12:33:55;;;;;;;0.50;0.10;;;9.00;1.00;;;;;;6173077;23;20409;-83
2022/11/28 12:36:29;;;;;;;0.50;0.10;;;9.00;1.00;;;;;;6173297;23;20472;-82
2022/11/28 12:39:03;;;;;;;0.50;0.10;;;8.90;1.00;;;;;;6172217;23;20440;-82
2022/11/28 12:41:58;;;;;;;0.50;0.10;;;9.00;1.00;;;;;;6172116;23;20508;-81
2022/11/28 12:44:40;;;;;;;0.50;0.10;;;9.00;1.00;;;;;;6174382;23;20385;-82
2022/11/28 12:47:15;;;;;;;0.80;0.80;;;9.10;1.00;;;;;;6173036;23;20436;-83
2022/11/28 12:49:53;;;;;;;0.50;0.10;;;9.10;1.00;;;;;;6175572;23;20436;-82
2022/11/28 12:52:31;;;;;;;0.50;0.10;;;9.10;1.00;;;;;;6174199;23;20758;-82
2022/11/28 12:55:19;;;;;;;0.50;0.20;;;9.00;1.00;;;;;;6181619;23;20419;-83
2022/11/28 12:57:53;;;;;;;0.50;0.10;;;9.00;1.00;;;;;;6182158;23;20443;-84
2022/11/28 13:00:26;;;;;;;0.50;0.10;;;9.10;1.00;;;;;;6176955;23;20393;-81
2022/11/28 13:03:07;;;;;;;0.50;0.10;;;9.10;1.00;;;;;;6171909;23;20381;-82
2022/11/28 13:05:53;;;;;;;0.50;0.20;;;7.80;1.00;;;;;;6174849;23;20484;-83
2022/11/28 13:08:36;;;;;;;0.60;0.50;;;9.00;1.00;;;;;;6173424;23;20408;-82
2022/11/28 13:11:21;;;;;;;0.50;0.10;;;8.90;1.00;;;;;;6173940;23;20374;-83
2022/11/28 13:13:55;;;;;;;0.50;0.10;;;8.90;1.00;;;;;;6172360;23;20798;-79
2022/11/28 13:16:31;;;;;;;0.50;0.10;;;8.90;1.00;;;;;;6165200;23;20425;-80
2022/11/28 13:19:09;;;;;;;0.50;0.10;;;8.90;1.00;;;;;;6165913;23;20428;-80
2022/11/28 13:21:45;;;;;;;0.50;0.10;;;8.90;1.00;;;;;;6163166;23;20461;-80
2022/11/28 13:24:28;;;;;;;0.50;0.10;;;9.00;1.00;;;;;;6169019;23;20435;-81
2022/11/28 13:27:01;;;;;;;0.60;0.20;;;8.90;1.00;;;;;;6166207;23;20448;-81
2022/11/28 13:29:37;;;;;;;1.47;1.23;;;8.90;1.00;;;;;;6166913;23;20413;-82
2022/11/28 13:32:13;;;;;;;1.97;0.30;;;8.90;1.00;;;;;;6169739;23;20443;-81
2022/11/28 13:34:41;;;;;;;0.50;0.10;;;8.80;1.00;;;;;;6168092;23;20789;-81
2022/11/28 13:37:14;;;;;;;2.87;2.67;;;8.70;5.30;;;;;;6170241;23;20531;-79
2022/11/28 13:40:15;;;;;;;0.50;0.10;;;8.60;7.00;;;;;;6179722;23;20436;-80
2022/11/28 13:42:54;;;;;;;1.03;0.30;;;8.60;9.50;;;;;;6178713;23;20476;-81
2022/11/28 13:45:36;;;;;;;0.50;0.10;;;8.60;19.70;;;;;;6177667;23;20404;-81
2022/11/28 13:48:51;;;;;;;0.50;0.10;;;8.60;23.50;;;;;;6175462;23;20429;-82
2022/11/28 13:51:43;;;;;;;0.50;0.13;;;;;;;;;;6172933;23;20432;-82
2022/11/28 13:54:44;;;;;;;0.50;0.20;;;8.60;30.50;;;;;;6174892;23;20409;-83
2022/11/28 13:57:21;;;;;;;0.50;0.10;;;8.60;34.50;;;;;;6176760;23;20432;-82
2022/11/28 13:59:55;;;;;;;0.50;0.10;;;8.60;38.90;;;;;;6169850;23;20440;-83
2022/11/28 14:02:37;;;;;;;0.50;0.10;;;8.60;42.90;;;;;;6168499;23;20408;-82
2022/11/28 14:05:09;;;;;;;0.50;0.10;;;;;;;;;;6168572;23;20728;-82
2022/11/28 14:07:39;;;;;;;0.50;0.10;;;;;;;;;;6168991;23;20853;-82
2022/11/28 14:10:35;;;;;;;0.50;0.10;;;8.70;47.70;;;;;;6177378;23;20469;-81
2022/11/28 14:13:58;;;;;;;0.50;0.10;;;8.70;48.00;;;;;;6175960;23;20440;-81
2022/11/28 14:16:44;;;;;;;0.50;0.10;;;8.70;50.20;;;;;;6059642;23;21033;-81
2022/11/28 14:19:30;;;;;;;0.50;0.10;;;8.70;53.20;;;;;;6174413;23;20452;-82
2022/11/28 14:22:13;;;;;;;2.93;2.73;;;8.70;54.70;;;;;;6178435;23;20395;-82
2022/11/28 14:25:01;;;;;;;0.50;0.10;;;8.70;58.00;;;;;;6176555;23;20405;-82
2022/11/28 14:27:33;;;;;;;0.60;0.40;;;8.70;59.90;;;;;;6164599;23;20933;-81
2022/11/28 14:30:01;;;;;;;0.50;0.10;;;8.70;60.60;;;;;;6163554;23;21010;-82
2022/11/28 14:32:35;;;;;;;0.50;0.10;;;8.70;61.60;;;;;;6162547;23;20695;-79
2022/11/28 14:35:05;;;;;;;0.50;0.10;;;8.60;70.70;;;;;;6163813;23;20417;-81
2022/11/28 14:37:49;;;;;;;0.50;0.10;;;8.50;74.80;;;;;;6165085;23;20447;-82
2022/11/28 14:41:07;;;;;;;0.50;0.10;;;8.50;81.90;;;;;;6165274;23;20451;-81
2022/11/28 14:43:42;;;;;;;0.50;0.20;;;8.60;86.70;;;;;;6165973;23;20444;-81
2022/11/28 14:46:31;;;;;;;0.50;0.10;;;8.60;90.20;;;;;;6167130;23;20495;-83
2022/11/28 14:49:20;;;;;;;0.50;0.10;;;8.60;88.40;;;;;;6165666;23;20441;-82
2022/11/28 14:52:24;;;;;;;0.50;0.10;;;8.60;90.10;;;;;;6166992;23;20420;-81
2022/11/28 14:55:18;;;;;;;0.50;0.10;;;8.60;88.80;;;;;;6116341;23;20423;-83
2022/11/28 14:57:57;;;;;;;0.50;0.10;;;8.60;86.70;;;;;;6165638;23;20437;-83
2022/11/28 15:00:30;;;;;;;0.50;0.10;;;8.70;83.50;;;;;;6166829;23;20436;-83
2022/11/28 15:03:14;;;;;;;0.50;0.10;;;8.70;83.60;;;;;;6169792;23;20397;-82
2022/11/28 15:05:46;;;;;;;4.53;4.33;;;8.70;80.80;;;;;;6182018;23;20388;-83
2022/11/28 15:08:32;;;;;;;0.50;0.10;;;8.70;81.00;;;;;;6181882;23;20432;-82
2022/11/28 15:11:19;;;;;;;0.50;0.10;;;8.70;80.50;;;;;;6168769;23;20412;-81
2022/11/28 15:14:04;;;;;;;0.60;0.30;;;8.70;80.70;;;;;;6167964;23;20413;-82
2022/11/28 15:16:36;;;;;;;2.93;1.43;;;8.70;74.90;;;;;;6167497;23;20432;-82
2022/11/28 15:19:08;;;;;;;0.50;0.20;;;8.60;73.50;;;;;;6179332;23;20449;-81
2022/11/28 15:21:44;;;;;;;1.13;0.60;;;8.70;65.00;;;;;;6179121;23;20396;-82
2022/11/28 15:24:22;;;;;;;0.50;0.20;;;8.60;56.90;;;;;;6179783;23;20789;-81
2022/11/28 15:26:50;;;;;;;0.50;0.10;;;8.60;52.90;;;;;;6178306;23;20507;-80
2022/11/28 15:29:26;;;;;;;0.50;0.10;;;8.50;50.20;;;;;;6175725;23;20382;-82
2022/11/28 15:31:57;;;;;;;0.50;0.10;;;8.60;47.70;;;;;;6168174;23;20930;-81
2022/11/28 15:34:28;;;;;;;0.50;0.10;;;8.60;47.70;;;;;;6166672;23;20720;-80
2022/11/28 15:36:59;;;;;;;0.50;0.10;;;8.60;45.00;;;;;;6169695;23;20461;-81
2022/11/28 15:39:33;;;;;;;0.50;0.10;;;8.60;44.40;;;;;;6168242;23;20440;-81
2022/11/28 15:42:03;;;;;;;0.50;0.10;;;8.60;49.70;;;;;;6166413;23;20485;-81
2022/11/28 15:44:32;;;;;;;0.50;0.10;;;8.60;41.90;;;;;;6164175;23;20431;-82
2022/11/28 15:47:01;;;;;;;0.50;0.10;;;8.60;42.10;;;;;;6164223;23;20437;-82
2022/11/28 15:49:31;;;;;;;0.50;0.10;;;8.60;40.60;;;;;;6169051;23;20421;-82
2022/11/28 15:52:01;;;;;;;0.50;0.10;;;8.60;38.70;;;;;;6171788;23;20412;-80
2022/11/28 15:54:35;;;;;;;0.50;0.10;;;8.60;38.30;;;;;;6172744;23;20397;-81
2022/11/28 15:57:04;;;;;;;0.50;0.17;;;8.60;36.40;;;;;;6174265;23;20417;-81
2022/11/28 15:59:32;;;;;;;0.50;0.10;;;8.60;31.80;;;;;;6174319;23;20449;-80
2022/11/28 16:02:11;;;;;;;0.50;0.10;;;8.60;31.80;;;;;;6169413;23;20397;-80
2022/11/28 16:04:39;;;;;;;0.50;0.10;;;8.60;33.40;;;;;;6170683;23;20389;-83
2022/11/28 16:07:14;;;;;;;0.50;0.10;;;8.60;33.80;;;;;;6168941;23;20523;-80
2022/11/28 16:09:54;;;;;;;0.50;0.10;;;8.60;33.90;;;;;;6167651;23;20420;-82
2022/11/28 16:12:23;;;;;;;0.50;0.10;;;8.60;34.50;;;;;;6167822;23;20503;-82
2022/11/28 16:14:55;;;;;;;0.50;0.10;;;;;;;;;;6167549;23;20401;-82
2022/11/28 16:17:28;;;;;;;0.50;0.10;;;8.60;35.20;;;;;;6170896;23;20424;-81
2022/11/28 16:19:57;;;;;;;0.50;0.10;;;;;;;;;;6170929;23;20444;-81
2022/11/28 16:22:32;;;;;;;0.50;0.10;;;8.60;35.00;;;;;;6177811;23;20416;-81
2022/11/28 16:25:13;;;;;;;0.50;0.10;;;8.60;34.40;;;;;;6168956;23;20777;-82
2022/11/28 16:27:44;;;;;;;0.50;0.10;;;8.60;32.40;;;;;;6168055;23;20433;-84
2022/11/28 16:30:26;;;;;;;0.57;0.30;;;;;;;;;;6166858;23;20414;-82
2022/11/28 16:32:56;;;;;;;0.50;0.10;;;8.60;35.00;;;;;;6165840;23;20806;-82
2022/11/28 16:35:27;;;;;;;0.50;0.10;;;8.60;36.00;;;;;;6167083;23;20424;-80
2022/11/28 16:38:04;;;;;;;0.50;0.10;;;8.60;38.00;;;;;;6166624;23;20499;-83
2022/11/28 16:40:33;;;;;;;0.50;0.10;;;;;;;;;;6167026;23;20523;-80
2022/11/28 16:43:04;;;;;;;0.50;0.10;;;8.60;44.40;;;;;;6173548;23;20432;-81
2022/11/28 16:45:33;;;;;;;0.50;0.10;;;8.60;45.90;;;;;;6166257;23;20747;-82
2022/11/28 16:48:10;;;;;;;0.50;0.10;;;8.60;46.50;;;;;;6164977;23;20766;-80
2022/11/28 16:50:38;;;;;;;0.50;0.10;;;8.60;46.20;;;;;;6164964;23;20465;-82
2022/11/28 16:53:06;;;;;;;0.50;0.10;;;8.60;51.30;;;;;;6165812;23;20417;-84
2022/11/28 16:55:44;;;;;;;0.50;0.10;;;8.60;52.30;;;;;;6163330;23;20771;-82
2022/11/28 16:58:22;;;;;;;0.50;0.10;;;8.60;53.60;;;;;;6164601;23;20440;-82
2022/11/28 17:00:58;;;;;;;0.50;0.10;;;8.60;59.50;;;;;;6169921;23;20974;-81
2022/11/28 17:03:57;;;;;;;0.50;0.10;;;8.60;55.60;;;;;;6165627;23;20417;-81
2022/11/28 17:06:32;;;;;;;0.50;0.10;;;8.60;58.50;;;;;;6167661;23;20433;-82
2022/11/28 17:09:01;;;;;;;0.50;0.10;;;8.60;58.90;;;;;;6166902;23;20476;-81
2022/11/28 17:11:31;;;;;;;0.50;0.10;;;9.40;65.70;;;;;;6168600;23;20401;-80
2022/11/28 17:13:59;;;;;;;0.60;0.47;;;8.60;65.40;;;;;;6168207;23;20377;-80
2022/11/28 17:16:32;;;;;;;0.50;0.10;;;8.60;74.80;;;;;;6168359;23;20480;-83
2022/11/28 17:19:02;;;;;;;0.50;0.30;;;;;;;;;;6171508;23;20393;-81
2022/11/28 17:21:36;;;;;;;0.50;0.10;;;8.70;75.10;;;;;;6168403;23;20505;-80
2022/11/28 17:24:06;;;;;;;0.50;0.10;;;8.70;77.60;;;;;;6164338;23;20416;-80
2022/11/28 17:26:34;;;;;;;0.50;0.10;;;;;;;;;;6161264;23;20425;-76
2022/11/28 17:29:02;;;;;;;0.50;0.10;;;8.70;75.00;;;;;;6152517;23;20475;-76
2022/11/28 17:31:30;;;;;;;0.50;0.10;;;8.80;81.80;;;;;;6156276;23;20401;-77
2022/11/28 17:33:57;;;;;;;0.50;0.10;;;8.80;81.20;;;;;;6155520;23;20694;-78
2022/11/28 17:36:27;;;;;;;0.50;0.10;;;8.80;80.20;;;;;;6155678;23;20460;-77
2022/11/28 17:38:54;;;;;;;0.50;0.10;;;8.70;71.20;;;;;;6155640;23;20425;-77
2022/11/28 17:41:29;;;;;;;0.50;0.10;;;8.70;68.50;;;;;;6155283;23;20430;-77
2022/11/28 17:43:57;;;;;;;0.50;0.10;;;8.70;74.90;;;;;;6155591;23;20417;-77
2022/11/28 17:46:24;;;;;;;0.50;0.10;;;8.70;70.70;;;;;;6156319;23;20412;-76
2022/11/28 17:48:53;;;;;;;0.50;0.20;;;8.70;70.80;;;;;;6155775;23;20448;-77